createdAt,value
2018-07-24T00:00:28.379Z,14.77
2018-07-24T00:02:57.215Z,14.23
2018-07-24T00:05:26.010Z,15.83
2018-07-24T00:07:54.879Z,14.60
2018-07-24T00:10:23.787Z,14.80
2018-07-24T00:12:52.685Z,15.50
2018-07-24T00:15:21.493Z,15.10
2018-07-24T00:17:50.366Z,15.10
2018-07-24T00:20:19.098Z,17.00
2018-07-24T00:22:47.951Z,16.57
2018-07-24T00:25:16.783Z,15.90
2018-07-24T00:27:45.506Z,16.23
2018-07-24T00:30:14.403Z,17.40
2018-07-24T00:32:43.129Z,16.83
2018-07-24T00:35:11.955Z,16.20
2018-07-24T00:37:40.823Z,16.40
2018-07-24T00:40:09.655Z,16.73
2018-07-24T00:42:38.418Z,18.23
2018-07-24T00:45:07.267Z,17.33
2018-07-24T00:47:36.165Z,15.87
2018-07-24T00:50:05.153Z,17.00
2018-07-24T00:52:34.081Z,15.83
2018-07-24T00:55:02.984Z,16.30
2018-07-24T00:57:31.725Z,16.10
2018-07-24T01:00:00.531Z,17.50
2018-07-24T01:02:29.347Z,17.30
2018-07-24T01:05:00.984Z,16.60
2018-07-24T01:07:34.558Z,15.73
2018-07-24T01:10:03.579Z,16.63
2018-07-24T01:12:32.439Z,17.40
2018-07-24T01:15:01.283Z,16.53
2018-07-24T01:17:30.151Z,15.10
2018-07-24T01:19:58.988Z,15.60
2018-07-24T01:22:27.967Z,16.30
2018-07-24T01:24:56.799Z,16.93
2018-07-24T01:27:25.635Z,15.73
2018-07-24T01:29:54.373Z,17.77
2018-07-24T01:32:23.260Z,18.20
2018-07-24T01:34:52.141Z,16.50
2018-07-24T01:37:20.944Z,15.73
2018-07-24T01:39:49.795Z,16.50
2018-07-24T01:42:18.696Z,16.37
2018-07-24T01:44:47.437Z,17.57
2018-07-24T01:47:16.287Z,17.70
2018-07-24T01:49:45.143Z,17.83
2018-07-24T01:52:13.869Z,16.20
2018-07-24T01:54:42.702Z,16.77
2018-07-24T01:57:11.550Z,17.50
2018-07-24T01:59:40.407Z,16.33
2018-07-24T02:02:09.272Z,16.90
2018-07-24T02:04:38.131Z,18.60
2018-07-24T02:07:07.009Z,17.00
2018-07-24T02:09:35.892Z,17.17
2018-07-24T02:12:04.798Z,16.30
2018-07-24T02:14:33.708Z,17.40
2018-07-24T02:17:02.565Z,16.67
2018-07-24T02:19:31.515Z,16.20
2018-07-24T02:22:00.384Z,17.23
2018-07-24T02:24:29.200Z,16.73
2018-07-24T02:26:58.170Z,17.33
2018-07-24T02:29:27.058Z,17.97
2018-07-24T02:31:56.005Z,17.00
2018-07-24T02:34:24.746Z,17.47
2018-07-24T02:36:53.583Z,17.13
2018-07-24T02:39:22.395Z,18.47
2018-07-24T02:41:51.234Z,17.90
2018-07-24T02:44:19.992Z,18.20
2018-07-24T02:46:49.092Z,16.93
2018-07-24T02:49:17.899Z,17.47
2018-07-24T02:51:46.757Z,15.80
2018-07-24T02:54:15.591Z,17.80
2018-07-24T02:56:44.450Z,17.37
2018-07-24T02:59:13.326Z,17.33
2018-07-24T03:01:42.220Z,16.93
2018-07-24T03:04:11.139Z,18.80
2018-07-24T03:06:39.972Z,17.03
2018-07-24T03:10:33.657Z,16.97
2018-07-24T03:13:02.527Z,15.97
2018-07-24T03:15:31.368Z,16.10
2018-07-24T03:18:00.212Z,18.20
2018-07-24T03:20:29.103Z,17.90
2018-07-24T03:22:58.004Z,18.10
2018-07-24T03:25:26.824Z,19.00
2018-07-24T03:27:55.660Z,17.00
2018-07-24T03:30:24.540Z,16.30
2018-07-24T03:32:53.391Z,18.90
2018-07-24T03:35:22.254Z,17.43
2018-07-24T03:37:51.092Z,15.97
2018-07-24T03:40:19.983Z,17.83
2018-07-24T03:42:48.815Z,17.43
2018-07-24T03:45:17.773Z,17.40
2018-07-24T03:47:46.615Z,17.60
2018-07-24T03:50:15.458Z,16.50
2018-07-24T03:52:44.205Z,16.73
2018-07-24T03:55:13.056Z,16.30
2018-07-24T03:57:41.878Z,17.60
2018-07-24T04:00:10.736Z,17.03
2018-07-24T04:02:39.596Z,18.37
2018-07-24T04:05:08.358Z,17.87
2018-07-24T04:07:37.143Z,17.00
2018-07-24T04:10:06.091Z,18.43
2018-07-24T04:12:34.936Z,16.40
2018-07-24T04:15:04.651Z,17.97
2018-07-24T04:17:33.414Z,16.87
2018-07-24T04:20:02.372Z,17.83
2018-07-24T04:22:31.311Z,17.80
2018-07-24T04:25:00.203Z,17.80
2018-07-24T04:27:29.114Z,16.87
2018-07-24T04:29:57.872Z,17.67
2018-07-24T04:32:26.728Z,17.70
2018-07-24T04:34:55.574Z,18.37
2018-07-24T04:37:24.434Z,16.77
2018-07-24T04:39:53.332Z,18.67
2018-07-24T04:42:22.191Z,18.87
2018-07-24T04:44:51.046Z,18.80
2018-07-24T04:47:19.867Z,17.33
2018-07-24T04:49:48.735Z,17.07
2018-07-24T04:52:17.521Z,17.93
2018-07-24T04:54:46.333Z,17.73
2018-07-24T04:57:15.179Z,18.90
2018-07-24T04:59:44.026Z,17.90
2018-07-24T05:02:12.885Z,18.97
2018-07-24T05:04:41.704Z,19.57
2018-07-24T05:07:10.554Z,18.77
2018-07-24T05:09:39.370Z,18.63
2018-07-24T05:12:08.054Z,18.70
2018-07-24T05:14:36.850Z,19.40
2018-07-24T05:17:05.762Z,19.50
2018-07-24T05:19:34.590Z,19.63
2018-07-24T05:22:03.464Z,18.00
2018-07-24T05:24:32.342Z,19.17
2018-07-24T05:27:01.208Z,18.80
2018-07-24T05:29:30.025Z,17.63
2018-07-24T05:31:58.882Z,20.03
2018-07-24T05:34:27.770Z,17.70
2018-07-24T05:36:56.583Z,16.70
2018-07-24T05:39:25.455Z,17.90
2018-07-24T05:41:54.427Z,18.83
2018-07-24T05:44:23.503Z,18.00
2018-07-24T05:46:52.253Z,19.47
2018-07-24T05:49:21.074Z,18.57
2018-07-24T05:51:49.886Z,19.80
2018-07-24T05:54:18.758Z,20.23
2018-07-24T05:56:47.493Z,16.90
2018-07-24T05:59:16.395Z,17.73
2018-07-24T06:01:45.282Z,17.40
2018-07-24T06:04:14.138Z,17.57
2018-07-24T06:06:42.971Z,18.30
2018-07-24T06:09:11.819Z,17.83
2018-07-24T06:11:40.708Z,18.13
2018-07-24T06:14:09.667Z,17.50
2018-07-24T06:16:38.533Z,17.60
2018-07-24T06:19:07.412Z,16.43
2018-07-24T06:21:36.276Z,16.57
2018-07-24T06:24:05.160Z,16.03
2018-07-24T06:26:33.878Z,15.80
2018-07-24T06:29:02.759Z,16.27
2018-07-24T06:31:31.640Z,15.97
2018-07-24T06:34:00.461Z,14.80
2018-07-24T06:36:29.395Z,15.30
2018-07-24T06:38:58.144Z,16.43
2018-07-24T06:41:26.992Z,15.77
2018-07-24T06:43:55.966Z,16.80
2018-07-24T06:46:27.660Z,16.00
2018-07-24T06:48:56.531Z,17.13
2018-07-24T06:51:25.275Z,15.20
2018-07-24T06:53:54.143Z,14.13
2018-07-24T06:56:23.003Z,14.30
2018-07-24T06:58:51.843Z,18.97
2018-07-24T07:01:20.655Z,24.10
2018-07-24T07:03:49.366Z,17.03
2018-07-24T07:06:18.280Z,13.10
2018-07-24T07:08:47.088Z,15.13
2018-07-24T07:11:15.896Z,13.77
2018-07-24T07:13:44.743Z,18.53
2018-07-24T07:16:13.581Z,14.00
2018-07-24T07:18:42.326Z,14.50
2018-07-24T07:21:11.999Z,14.10
2018-07-24T07:23:40.863Z,13.60
2018-07-24T07:26:09.741Z,14.03
2018-07-24T07:28:38.552Z,12.90
2018-07-24T07:31:07.338Z,13.47
2018-07-24T07:33:36.199Z,14.10
2018-07-24T07:36:05.175Z,12.57
2018-07-24T07:38:33.987Z,13.37
2018-07-24T07:41:02.813Z,12.53
2018-07-24T07:43:31.646Z,12.50
2018-07-24T07:46:00.508Z,13.50
2018-07-24T07:48:29.372Z,13.80
2018-07-24T07:50:58.070Z,14.17
2018-07-24T07:53:26.795Z,12.67
2018-07-24T07:55:55.887Z,12.30
2018-07-24T07:58:24.752Z,12.50
2018-07-24T08:00:53.606Z,11.43
2018-07-24T08:03:22.423Z,11.50
2018-07-24T08:05:51.246Z,12.93
2018-07-24T08:08:20.107Z,12.30
2018-07-24T08:10:48.944Z,12.70
2018-07-24T08:13:17.805Z,11.97
2018-07-24T08:15:46.677Z,12.57
2018-07-24T08:18:15.831Z,11.83
2018-07-24T08:20:44.687Z,12.57
2018-07-24T08:23:13.574Z,11.40
2018-07-24T08:25:42.466Z,11.13
2018-07-24T08:28:11.388Z,12.10
2018-07-24T08:30:40.235Z,14.47
2018-07-24T08:33:09.109Z,11.77
2018-07-24T08:35:37.975Z,13.50
2018-07-24T08:38:06.819Z,30.60
2018-07-24T08:40:35.699Z,11.70
2018-07-24T08:43:04.736Z,24.60
2018-07-24T08:45:33.578Z,12.57
2018-07-24T08:48:02.436Z,13.63
2018-07-24T08:50:31.290Z,31.07
2018-07-24T08:53:00.379Z,10.97
2018-07-24T08:55:29.313Z,9.53
2018-07-24T08:57:57.943Z,10.80
2018-07-24T09:00:26.790Z,9.80
2018-07-24T09:02:55.699Z,8.83
2018-07-24T09:05:24.533Z,9.90
2018-07-24T09:07:53.399Z,9.80
2018-07-24T09:10:22.279Z,10.87
2018-07-24T09:12:51.177Z,9.50
2018-07-24T09:15:20.023Z,9.10
2018-07-24T09:17:48.871Z,9.73
2018-07-24T09:20:17.753Z,9.97
2018-07-24T09:22:46.629Z,9.17
2018-07-24T09:25:15.490Z,10.10
2018-07-24T09:27:44.417Z,10.70
2018-07-24T09:30:13.382Z,10.07
2018-07-24T09:32:42.178Z,9.30
2018-07-24T09:35:11.059Z,9.17
2018-07-24T09:37:40.500Z,9.70
2018-07-24T09:40:09.355Z,9.47
2018-07-24T09:42:38.249Z,9.30
2018-07-24T09:45:07.481Z,9.40
2018-07-24T09:47:36.314Z,10.40
2018-07-24T09:50:05.680Z,9.73
2018-07-24T09:52:34.567Z,9.17
2018-07-24T09:55:03.815Z,8.60
2018-07-24T09:57:32.680Z,8.73
2018-07-24T10:00:01.558Z,9.60
2018-07-24T10:02:30.404Z,9.23
2018-07-24T10:04:59.279Z,8.67
2018-07-24T10:07:28.128Z,10.20
2018-07-24T10:09:57.056Z,9.73
2018-07-24T10:12:25.934Z,9.57
2018-07-24T10:14:54.755Z,9.10
2018-07-24T10:17:23.619Z,10.97
2018-07-24T10:19:52.511Z,8.10
2018-07-24T10:22:21.442Z,7.83
2018-07-24T10:24:50.311Z,8.90
2018-07-24T10:27:19.177Z,8.00
2018-07-24T10:29:48.100Z,8.60
2018-07-24T10:32:16.979Z,8.73
2018-07-24T10:34:45.697Z,9.60
2018-07-24T10:37:14.687Z,8.53
2018-07-24T10:39:43.542Z,9.53
2018-07-24T10:42:12.600Z,8.40
2018-07-24T10:44:41.563Z,9.07
2018-07-24T10:47:10.608Z,11.70
2018-07-24T10:49:39.556Z,8.80
2018-07-24T10:52:08.506Z,8.60
2018-07-24T10:54:37.419Z,9.17
2018-07-24T10:57:06.363Z,8.40
2018-07-24T10:59:35.192Z,7.70
2018-07-24T11:02:04.151Z,8.23
2018-07-24T11:04:33.010Z,8.70
2018-07-24T11:07:01.919Z,8.53
2018-07-24T11:09:30.812Z,7.77
2018-07-24T11:11:59.675Z,8.00
2018-07-24T11:14:28.548Z,9.07
2018-07-24T11:16:57.415Z,9.00
2018-07-24T11:19:26.324Z,7.80
2018-07-24T11:21:55.184Z,7.93
2018-07-24T11:24:23.978Z,9.20
2018-07-24T11:26:52.879Z,8.60
2018-07-24T11:29:21.820Z,9.37
2018-07-24T11:31:50.692Z,8.30
2018-07-24T11:34:19.579Z,8.47
2018-07-24T11:36:48.472Z,8.50
2018-07-24T11:39:17.351Z,9.60
2018-07-24T11:41:46.236Z,8.40
2018-07-24T11:44:15.095Z,7.90
2018-07-24T11:46:43.974Z,9.43
2018-07-24T11:49:12.868Z,8.73
2018-07-24T11:51:41.901Z,8.23
2018-07-24T11:54:10.735Z,7.97
2018-07-24T11:56:39.627Z,10.00
2018-07-24T11:59:08.512Z,7.77
2018-07-24T12:01:37.388Z,9.10
2018-07-24T12:04:06.292Z,8.10
2018-07-24T12:06:35.457Z,8.63
2018-07-24T12:09:07.633Z,9.10
2018-07-24T12:11:36.651Z,9.90
2018-07-24T12:14:05.584Z,10.10
2018-07-24T12:16:34.438Z,9.43
2018-07-24T12:19:03.360Z,9.47
2018-07-24T12:21:32.111Z,8.60
2018-07-24T12:24:00.958Z,7.43
2018-07-24T12:26:29.853Z,8.13
2018-07-24T12:28:58.780Z,7.90
2018-07-24T12:31:27.664Z,8.37
2018-07-24T12:33:56.530Z,9.00
2018-07-24T12:36:25.548Z,9.30
2018-07-24T12:38:54.390Z,10.57
2018-07-24T12:41:23.331Z,10.10
2018-07-24T12:43:52.213Z,8.40
2018-07-24T12:46:21.103Z,8.70
2018-07-24T12:48:50.009Z,8.47
2018-07-24T12:51:18.876Z,8.10
2018-07-24T12:53:47.871Z,8.87
2018-07-24T12:56:16.769Z,8.70
2018-07-24T12:58:45.648Z,7.80
2018-07-24T13:01:14.478Z,7.83
2018-07-24T13:03:43.595Z,8.47
2018-07-24T13:06:12.441Z,7.97
2018-07-24T13:08:41.344Z,7.93
2018-07-24T13:11:10.310Z,8.50
2018-07-24T13:13:39.216Z,9.20
2018-07-24T13:16:08.027Z,8.50
2018-07-24T13:18:36.924Z,7.80
2018-07-24T13:21:05.863Z,9.30
2018-07-24T13:23:34.821Z,7.93
2018-07-24T13:26:03.725Z,8.40
2018-07-24T13:28:32.453Z,8.40
2018-07-24T13:31:01.340Z,7.90
2018-07-24T13:33:30.797Z,8.03
2018-07-24T13:35:59.680Z,8.87
2018-07-24T13:38:28.636Z,8.67
2018-07-24T13:40:57.471Z,11.53
2018-07-24T13:43:27.312Z,8.87
2018-07-24T13:45:56.170Z,7.80
2018-07-24T13:48:25.050Z,8.60
2018-07-24T13:50:53.912Z,10.50
2018-07-24T13:53:23.090Z,9.33
2018-07-24T13:55:51.948Z,10.23
2018-07-24T13:58:20.698Z,9.37
2018-07-24T14:00:49.580Z,8.37
2018-07-24T14:03:18.426Z,9.77
2018-07-24T14:05:47.267Z,8.50
2018-07-24T14:08:16.121Z,9.10
2018-07-24T14:10:44.967Z,8.73
2018-07-24T14:13:13.835Z,9.57
2018-07-24T14:15:42.667Z,9.13
2018-07-24T14:18:11.439Z,8.57
2018-07-24T14:20:40.411Z,8.30
2018-07-24T14:23:09.310Z,8.53
2018-07-24T14:25:38.122Z,9.90
2018-07-24T14:28:06.966Z,8.40
2018-07-24T14:30:35.813Z,8.87
2018-07-24T14:33:04.764Z,8.57
2018-07-24T14:35:33.681Z,8.53
2018-07-24T14:38:02.624Z,8.87
2018-07-24T14:40:31.514Z,8.73
2018-07-24T14:43:00.320Z,9.70
2018-07-24T14:45:29.173Z,9.23
2018-07-24T14:47:58.061Z,9.20
2018-07-24T14:50:26.956Z,10.17
2018-07-24T14:52:55.872Z,9.73
2018-07-24T14:55:24.798Z,9.23
2018-07-24T14:57:56.624Z,10.30
2018-07-24T15:00:25.527Z,9.73
2018-07-24T15:02:54.295Z,9.60
2018-07-24T15:05:23.112Z,8.70
2018-07-24T15:07:51.991Z,8.63
2018-07-24T15:10:20.841Z,9.50
2018-07-24T15:12:49.691Z,9.40
2018-07-24T15:15:18.524Z,8.73
2018-07-24T15:17:47.787Z,9.50
2018-07-24T15:20:16.612Z,8.37
2018-07-24T15:22:45.363Z,7.93
2018-07-24T15:25:15.331Z,8.10
2018-07-24T15:27:44.267Z,9.23
2018-07-24T15:30:13.075Z,9.20
2018-07-24T15:32:41.922Z,9.30
2018-07-24T15:35:10.842Z,8.60
2018-07-24T15:37:39.670Z,8.97
2018-07-24T15:40:08.583Z,8.23
2018-07-24T15:42:37.507Z,7.53
2018-07-24T15:45:06.404Z,8.30
2018-07-24T15:47:35.129Z,8.37
2018-07-24T15:50:04.084Z,9.23
2018-07-24T15:52:32.834Z,8.10
2018-07-24T15:55:01.731Z,10.00
2018-07-24T15:57:30.705Z,9.30
2018-07-24T15:59:59.934Z,8.90
2018-07-24T16:02:28.756Z,8.37
2018-07-24T16:04:57.525Z,8.60
2018-07-24T16:07:26.519Z,8.17
2018-07-24T16:09:55.420Z,8.50
2018-07-24T16:12:24.169Z,8.70
2018-07-24T16:14:53.042Z,8.67
2018-07-24T16:17:21.940Z,7.87
2018-07-24T16:19:50.860Z,8.70
2018-07-24T16:22:20.227Z,8.63
2018-07-24T16:24:49.630Z,8.23
2018-07-24T16:27:19.428Z,8.73
2018-07-24T16:29:48.414Z,8.57
2018-07-24T16:32:17.273Z,8.90
2018-07-24T16:34:46.151Z,10.00
2018-07-24T16:37:15.103Z,8.20
2018-07-24T16:39:43.826Z,8.00
2018-07-24T16:42:12.679Z,8.60
2018-07-24T16:44:41.564Z,9.20
2018-07-24T16:47:10.472Z,8.83
2018-07-24T16:49:39.330Z,9.97
2018-07-24T16:52:08.232Z,8.37
2018-07-24T16:54:37.120Z,8.60
2018-07-24T16:57:05.983Z,9.00
2018-07-24T16:59:34.786Z,8.33
2018-07-24T17:02:03.735Z,8.80
2018-07-24T17:04:32.598Z,9.43
2018-07-24T17:07:01.452Z,9.07
2018-07-24T17:09:30.308Z,9.20
2018-07-24T17:11:59.206Z,9.70
2018-07-24T17:14:29.003Z,10.43
2018-07-24T17:16:57.839Z,10.13
2018-07-24T17:19:26.753Z,9.93
2018-07-24T17:21:55.675Z,9.70
2018-07-24T17:24:24.567Z,8.90
2018-07-24T17:26:53.453Z,9.33
2018-07-24T17:29:22.435Z,9.80
2018-07-24T17:31:51.362Z,10.60
2018-07-24T17:34:20.228Z,9.90
2018-07-24T17:36:49.188Z,9.60
2018-07-24T17:39:18.060Z,9.30
2018-07-24T17:41:46.999Z,9.83
2018-07-24T17:44:16.268Z,10.00
2018-07-24T17:46:45.535Z,9.70
2018-07-24T17:49:14.495Z,9.73
2018-07-24T17:51:44.438Z,10.37
2018-07-24T17:54:13.291Z,9.50
2018-07-24T17:56:42.197Z,10.70
2018-07-24T17:59:11.282Z,10.20
2018-07-24T18:01:40.370Z,9.40
2018-07-24T18:04:09.271Z,10.73
2018-07-24T18:06:38.147Z,10.50
2018-07-24T18:09:10.611Z,10.23
2018-07-24T18:11:39.489Z,9.67
2018-07-24T18:14:08.900Z,9.60
2018-07-24T18:16:38.149Z,11.07
2018-07-24T18:19:07.204Z,9.70
2018-07-24T18:21:36.074Z,10.87
2018-07-24T18:24:04.999Z,10.17
2018-07-24T18:26:33.874Z,10.43
2018-07-24T18:29:02.740Z,10.07
2018-07-24T18:31:31.606Z,10.10
2018-07-24T18:34:00.475Z,11.43
2018-07-24T18:36:29.341Z,10.77
2018-07-24T18:38:58.203Z,11.80
2018-07-24T18:41:27.100Z,11.13
2018-07-24T18:43:56.043Z,11.20
2018-07-24T18:46:25.063Z,11.03
2018-07-24T18:48:53.992Z,10.87
2018-07-24T18:51:22.827Z,11.97
2018-07-24T18:53:51.735Z,11.97
2018-07-24T18:56:20.604Z,12.10
2018-07-24T18:58:49.687Z,11.63
2018-07-24T19:01:18.575Z,13.20
2018-07-24T19:03:47.427Z,11.50
2018-07-24T19:06:16.287Z,12.50
2018-07-24T19:08:45.675Z,10.80
2018-07-24T19:11:14.774Z,11.57
2018-07-24T19:13:44.150Z,12.23
2018-07-24T19:16:13.334Z,11.90
2018-07-24T19:18:42.256Z,11.60
2018-07-24T19:21:11.577Z,12.83
2018-07-24T19:23:40.504Z,12.10
2018-07-24T19:26:09.445Z,11.73
2018-07-24T19:28:38.339Z,11.60
2018-07-24T19:31:07.675Z,11.00
2018-07-24T19:33:36.418Z,11.73
2018-07-24T19:36:06.122Z,12.13
2018-07-24T19:38:34.968Z,11.17
2018-07-24T19:41:04.052Z,12.27
2018-07-24T19:43:33.106Z,12.97
2018-07-24T19:46:02.083Z,12.73
2018-07-24T19:48:31.068Z,11.77
2018-07-24T19:50:59.995Z,12.53
2018-07-24T19:53:28.959Z,13.13
2018-07-24T19:55:57.868Z,11.43
2018-07-24T19:58:26.960Z,13.23
2018-07-24T20:00:55.933Z,12.57
2018-07-24T20:03:24.808Z,13.00
2018-07-24T20:05:53.692Z,11.30
2018-07-24T20:08:22.550Z,13.37
2018-07-24T20:10:51.404Z,12.77
2018-07-24T20:13:20.396Z,12.37
2018-07-24T20:15:49.186Z,13.60
2018-07-24T20:18:19.115Z,13.30
2018-07-24T20:20:48.019Z,13.20
2018-07-24T20:23:16.997Z,11.50
2018-07-24T20:25:45.823Z,11.93
2018-07-24T20:28:14.769Z,11.37
2018-07-24T20:30:43.595Z,11.37
2018-07-24T20:33:13.033Z,13.30
2018-07-24T20:35:42.107Z,12.60
2018-07-24T20:38:11.140Z,13.03
2018-07-24T20:40:40.090Z,11.03
2018-07-24T20:43:09.403Z,12.27
2018-07-24T20:45:38.287Z,12.27
2018-07-24T20:48:07.389Z,12.20
2018-07-24T20:50:36.247Z,13.03
2018-07-24T20:53:05.129Z,12.17
2018-07-24T20:55:33.865Z,12.90
2018-07-24T20:58:02.883Z,12.50
2018-07-24T21:00:31.881Z,12.20
2018-07-24T21:03:00.543Z,13.40
2018-07-24T21:05:29.423Z,12.50
2018-07-24T21:07:58.527Z,12.13
2018-07-24T21:10:27.412Z,11.90
2018-07-24T21:12:56.297Z,12.60
2018-07-24T21:15:25.164Z,12.83
2018-07-24T21:17:54.086Z,12.40
2018-07-24T21:20:23.016Z,11.00
2018-07-24T21:22:51.767Z,12.07
2018-07-24T21:25:20.663Z,12.90
2018-07-24T21:27:49.488Z,11.20
2018-07-24T21:30:18.356Z,13.13
2018-07-24T21:32:47.220Z,11.47
2018-07-24T21:35:16.344Z,12.13
2018-07-24T21:37:45.205Z,12.40
2018-07-24T21:40:14.036Z,12.37
2018-07-24T21:42:42.842Z,13.10
2018-07-24T21:45:11.699Z,11.63
2018-07-24T21:47:40.488Z,12.50
2018-07-24T21:50:09.341Z,10.97
2018-07-24T21:52:38.215Z,11.40
2018-07-24T21:55:07.123Z,10.40
2018-07-24T21:57:35.971Z,10.57
2018-07-24T22:00:07.181Z,12.13
2018-07-24T22:02:36.048Z,12.80
2018-07-24T22:05:04.956Z,11.70
2018-07-24T22:07:34.447Z,11.47
2018-07-24T22:10:08.013Z,12.00
2018-07-24T22:12:37.227Z,11.57
2018-07-24T22:15:10.879Z,12.33
2018-07-24T22:17:39.731Z,10.40
2018-07-24T22:20:08.563Z,10.70
2018-07-24T22:22:37.446Z,10.70
2018-07-24T22:25:06.358Z,11.60
2018-07-24T22:27:35.199Z,11.57
2018-07-24T22:30:04.684Z,11.97
2018-07-24T22:32:33.550Z,10.97
2018-07-24T22:35:02.455Z,11.00
2018-07-24T22:37:31.337Z,10.70
2018-07-24T22:40:00.106Z,11.30
2018-07-24T22:42:28.940Z,11.57
2018-07-24T22:44:57.795Z,11.50
2018-07-24T22:47:26.929Z,11.63
2018-07-24T22:49:56.696Z,11.40
2018-07-24T22:52:25.638Z,10.47
2018-07-24T22:54:54.503Z,10.57
2018-07-24T22:57:23.347Z,10.83
2018-07-24T22:59:52.186Z,11.70
2018-07-24T23:02:20.999Z,11.20
2018-07-24T23:04:49.840Z,11.10
2018-07-24T23:07:18.695Z,10.10
2018-07-24T23:09:47.868Z,10.13
2018-07-24T23:12:16.735Z,11.60
2018-07-24T23:14:45.579Z,12.40
2018-07-24T23:17:14.431Z,11.40
2018-07-24T23:19:43.295Z,10.00
2018-07-24T23:22:12.030Z,11.50
2018-07-24T23:24:40.906Z,11.20
2018-07-24T23:27:09.758Z,10.53
2018-07-24T23:29:38.615Z,11.30
2018-07-24T23:32:07.503Z,10.53
2018-07-24T23:34:36.338Z,10.40
2018-07-24T23:37:05.284Z,11.93
2018-07-24T23:39:34.179Z,11.33
2018-07-24T23:42:03.063Z,10.50
2018-07-24T23:44:31.887Z,10.30
2018-07-24T23:47:00.631Z,10.60
2018-07-24T23:49:29.512Z,11.10
2018-07-24T23:51:58.395Z,10.60
2018-07-24T23:54:27.339Z,12.83
2018-07-24T23:56:56.128Z,10.87
2018-07-24T23:59:25.084Z,11.27
